Harrisville, Rhode Island
Current Conditions -  °F | °C
As of 8:35 AM on Thursday 23 Oct 2014 (Local Time) from KSFZ Reporting Station
Overcast Overcast  
Wind Chill: 41°   Ceiling: 1000
Heat Index: 48°   Visibility: 10mi
Dew Point: 41°   Wind: 22mph
Humidity: 76%   Direction: 10°N
Pressure: 29.61"   Gusts: 31mph
Location:  41.97°N, 71.68°W
Report Text: KSFZ 231235Z 01019G27KT 10SM BKN010 OVC016 09/05 A2961 RMK AO1 P0001
Loading
Personal Weather Stations






























Interactive Weather Map
Tropical Storm Tracking
New forecast layout! Learn more

10-Day Weather Forecast

Advertisements
Track Severe Weather on mobile